sensor_id;sensor_type;location;lat;lon;timestamp;P1;durP1;ratioP1;P2;durP2;ratioP2
62832;SDS011;48891;49.220;6.920;2023-04-25T00:01:20;19.15;;;15.57;;
62832;SDS011;48891;49.220;6.920;2023-04-25T00:03:46;19.17;;;15.80;;
62832;SDS011;48891;49.220;6.920;2023-04-25T00:06:11;19.10;;;16.08;;
62832;SDS011;48891;49.220;6.920;2023-04-25T00:08:37;21.58;;;16.70;;
62832;SDS011;48891;49.220;6.920;2023-04-25T00:11:02;21.08;;;16.55;;
62832;SDS011;48891;49.220;6.920;2023-04-25T00:13:28;21.15;;;16.85;;
62832;SDS011;48891;49.220;6.920;2023-04-25T00:15:53;19.02;;;16.13;;
62832;SDS011;48891;49.220;6.920;2023-04-25T00:18:18;20.40;;;16.52;;
62832;SDS011;48891;49.220;6.920;2023-04-25T00:20:44;19.90;;;15.98;;
62832;SDS011;48891;49.220;6.920;2023-04-25T00:23:09;18.98;;;15.60;;
62832;SDS011;48891;49.220;6.920;2023-04-25T00:25:35;22.15;;;15.95;;
62832;SDS011;48891;49.220;6.920;2023-04-25T00:28:00;20.27;;;15.50;;
62832;SDS011;48891;49.220;6.920;2023-04-25T00:30:25;20.00;;;16.10;;
62832;SDS011;48891;49.220;6.920;2023-04-25T00:32:50;19.40;;;15.98;;
62832;SDS011;48891;49.220;6.920;2023-04-25T00:35:16;19.73;;;15.52;;
62832;SDS011;48891;49.220;6.920;2023-04-25T00:37:41;21.08;;;15.50;;
62832;SDS011;48891;49.220;6.920;2023-04-25T00:40:06;18.13;;;14.52;;
62832;SDS011;48891;49.220;6.920;2023-04-25T00:42:32;17.33;;;13.77;;
62832;SDS011;48891;49.220;6.920;2023-04-25T00:44:58;19.60;;;15.07;;
62832;SDS011;48891;49.220;6.920;2023-04-25T00:47:24;19.10;;;16.08;;
62832;SDS011;48891;49.220;6.920;2023-04-25T00:49:50;19.55;;;15.45;;
62832;SDS011;48891;49.220;6.920;2023-04-25T00:52:15;19.67;;;13.90;;
62832;SDS011;48891;49.220;6.920;2023-04-25T00:54:41;19.60;;;15.63;;
62832;SDS011;48891;49.220;6.920;2023-04-25T00:57:06;17.30;;;13.55;;
62832;SDS011;48891;49.220;6.920;2023-04-25T00:59:31;20.05;;;15.52;;
62832;SDS011;48891;49.220;6.920;2023-04-25T01:01:56;19.38;;;15.07;;
62832;SDS011;48891;49.220;6.920;2023-04-25T01:04:22;20.35;;;15.20;;
62832;SDS011;48891;49.220;6.920;2023-04-25T01:06:48;19.88;;;15.05;;
62832;SDS011;48891;49.220;6.920;2023-04-25T01:09:13;18.50;;;15.50;;
62832;SDS011;48891;49.220;6.920;2023-04-25T01:11:39;17.75;;;14.35;;
62832;SDS011;48891;49.220;6.920;2023-04-25T01:14:04;18.90;;;14.82;;
62832;SDS011;48891;49.220;6.920;2023-04-25T01:16:29;17.75;;;14.10;;
62832;SDS011;48891;49.220;6.920;2023-04-25T01:18:55;16.92;;;14.27;;
62832;SDS011;48891;49.220;6.920;2023-04-25T01:21:20;17.27;;;14.27;;
62832;SDS011;48891;49.220;6.920;2023-04-25T01:23:46;18.05;;;14.63;;
62832;SDS011;48891;49.220;6.920;2023-04-25T01:26:12;16.95;;;14.13;;
62832;SDS011;48891;49.220;6.920;2023-04-25T01:28:38;17.15;;;13.80;;
62832;SDS011;48891;49.220;6.920;2023-04-25T01:31:04;16.48;;;13.10;;
62832;SDS011;48891;49.220;6.920;2023-04-25T01:33:29;16.42;;;13.40;;
62832;SDS011;48891;49.220;6.920;2023-04-25T01:35:55;18.48;;;14.07;;
62832;SDS011;48891;49.220;6.920;2023-04-25T01:38:20;17.88;;;13.68;;
62832;SDS011;48891;49.220;6.920;2023-04-25T01:40:46;17.10;;;13.35;;
62832;SDS011;48891;49.220;6.920;2023-04-25T01:43:11;16.10;;;13.15;;
62832;SDS011;48891;49.220;6.920;2023-04-25T01:45:40;17.55;;;13.55;;
62832;SDS011;48891;49.220;6.920;2023-04-25T01:48:09;16.67;;;13.45;;
62832;SDS011;48891;49.220;6.920;2023-04-25T01:50:37;16.90;;;13.20;;
62832;SDS011;48891;49.220;6.920;2023-04-25T01:53:03;14.98;;;12.65;;
62832;SDS011;48891;49.220;6.920;2023-04-25T01:55:29;16.88;;;14.02;;
62832;SDS011;48891;49.220;6.920;2023-04-25T01:57:54;17.50;;;14.23;;
62832;SDS011;48891;49.220;6.920;2023-04-25T02:00:20;14.68;;;12.60;;
62832;SDS011;48891;49.220;6.920;2023-04-25T02:02:45;17.85;;;13.05;;
62832;SDS011;48891;49.220;6.920;2023-04-25T02:05:10;17.92;;;13.43;;
62832;SDS011;48891;49.220;6.920;2023-04-25T02:07:35;16.65;;;12.93;;
62832;SDS011;48891;49.220;6.920;2023-04-25T02:10:01;16.85;;;12.90;;
62832;SDS011;48891;49.220;6.920;2023-04-25T02:12:27;16.83;;;12.68;;
62832;SDS011;48891;49.220;6.920;2023-04-25T02:14:52;14.63;;;12.05;;
62832;SDS011;48891;49.220;6.920;2023-04-25T02:17:18;16.23;;;12.73;;
62832;SDS011;48891;49.220;6.920;2023-04-25T02:19:43;14.50;;;12.65;;
62832;SDS011;48891;49.220;6.920;2023-04-25T02:22:08;15.73;;;12.32;;
62832;SDS011;48891;49.220;6.920;2023-04-25T02:24:34;14.60;;;12.43;;
62832;SDS011;48891;49.220;6.920;2023-04-25T02:26:59;15.05;;;11.77;;
62832;SDS011;48891;49.220;6.920;2023-04-25T02:29:24;14.93;;;11.90;;
62832;SDS011;48891;49.220;6.920;2023-04-25T02:31:49;16.00;;;12.18;;
62832;SDS011;48891;49.220;6.920;2023-04-25T02:34:15;15.38;;;12.40;;
62832;SDS011;48891;49.220;6.920;2023-04-25T02:36:40;15.00;;;11.50;;
62832;SDS011;48891;49.220;6.920;2023-04-25T02:39:05;15.25;;;11.75;;
62832;SDS011;48891;49.220;6.920;2023-04-25T02:41:30;15.73;;;12.18;;
62832;SDS011;48891;49.220;6.920;2023-04-25T02:43:56;16.15;;;12.18;;
62832;SDS011;48891;49.220;6.920;2023-04-25T02:46:21;15.10;;;12.15;;
62832;SDS011;48891;49.220;6.920;2023-04-25T02:48:46;15.70;;;12.30;;
62832;SDS011;48891;49.220;6.920;2023-04-25T02:51:11;15.27;;;12.48;;
62832;SDS011;48891;49.220;6.920;2023-04-25T02:53:37;14.05;;;11.13;;
62832;SDS011;48891;49.220;6.920;2023-04-25T02:56:02;14.30;;;11.60;;
62832;SDS011;48891;49.220;6.920;2023-04-25T02:58:27;14.88;;;11.30;;
62832;SDS011;48891;49.220;6.920;2023-04-25T03:00:53;14.75;;;11.68;;
62832;SDS011;48891;49.220;6.920;2023-04-25T03:03:18;14.90;;;11.65;;
62832;SDS011;48891;49.220;6.920;2023-04-25T03:05:44;14.40;;;11.60;;
62832;SDS011;48891;49.220;6.920;2023-04-25T03:08:09;13.90;;;11.32;;
62832;SDS011;48891;49.220;6.920;2023-04-25T03:10:34;13.60;;;10.98;;
62832;SDS011;48891;49.220;6.920;2023-04-25T03:12:59;15.15;;;11.48;;
62832;SDS011;48891;49.220;6.920;2023-04-25T03:15:25;14.48;;;11.23;;
62832;SDS011;48891;49.220;6.920;2023-04-25T03:17:50;14.85;;;11.35;;
62832;SDS011;48891;49.220;6.920;2023-04-25T03:20:15;14.57;;;11.00;;
62832;SDS011;48891;49.220;6.920;2023-04-25T03:22:40;14.13;;;10.95;;
62832;SDS011;48891;49.220;6.920;2023-04-25T03:25:06;13.70;;;11.10;;
62832;SDS011;48891;49.220;6.920;2023-04-25T03:27:32;14.10;;;10.90;;
62832;SDS011;48891;49.220;6.920;2023-04-25T03:29:57;14.68;;;11.18;;
62832;SDS011;48891;49.220;6.920;2023-04-25T03:32:22;13.25;;;10.45;;
62832;SDS011;48891;49.220;6.920;2023-04-25T03:34:47;12.65;;;10.43;;
62832;SDS011;48891;49.220;6.920;2023-04-25T03:37:12;13.85;;;10.55;;
62832;SDS011;48891;49.220;6.920;2023-04-25T03:39:38;13.88;;;10.82;;
62832;SDS011;48891;49.220;6.920;2023-04-25T03:42:03;12.98;;;10.85;;
62832;SDS011;48891;49.220;6.920;2023-04-25T03:44:28;14.00;;;11.45;;
62832;SDS011;48891;49.220;6.920;2023-04-25T03:46:54;15.00;;;11.05;;
62832;SDS011;48891;49.220;6.920;2023-04-25T03:49:19;12.98;;;10.32;;
62832;SDS011;48891;49.220;6.920;2023-04-25T03:51:44;11.70;;;9.70;;
62832;SDS011;48891;49.220;6.920;2023-04-25T03:54:09;12.32;;;10.43;;
62832;SDS011;48891;49.220;6.920;2023-04-25T03:56:34;13.80;;;11.00;;
62832;SDS011;48891;49.220;6.920;2023-04-25T03:59:00;14.07;;;10.80;;
62832;SDS011;48891;49.220;6.920;2023-04-25T04:01:25;11.60;;;9.80;;
62832;SDS011;48891;49.220;6.920;2023-04-25T04:03:50;12.43;;;9.68;;
62832;SDS011;48891;49.220;6.920;2023-04-25T04:06:16;13.00;;;11.00;;
62832;SDS011;48891;49.220;6.920;2023-04-25T04:08:41;12.82;;;10.25;;
62832;SDS011;48891;49.220;6.920;2023-04-25T04:11:07;11.98;;;9.90;;
62832;SDS011;48891;49.220;6.920;2023-04-25T04:13:32;12.38;;;9.25;;
62832;SDS011;48891;49.220;6.920;2023-04-25T04:15:57;12.80;;;10.07;;
62832;SDS011;48891;49.220;6.920;2023-04-25T04:18:22;13.30;;;10.45;;
62832;SDS011;48891;49.220;6.920;2023-04-25T04:20:48;11.88;;;10.05;;
62832;SDS011;48891;49.220;6.920;2023-04-25T04:23:13;11.75;;;9.88;;
62832;SDS011;48891;49.220;6.920;2023-04-25T04:25:39;13.48;;;10.18;;
62832;SDS011;48891;49.220;6.920;2023-04-25T04:28:04;12.75;;;9.55;;
62832;SDS011;48891;49.220;6.920;2023-04-25T04:30:29;12.55;;;9.52;;
62832;SDS011;48891;49.220;6.920;2023-04-25T04:32:58;11.85;;;9.48;;
62832;SDS011;48891;49.220;6.920;2023-04-25T04:35:23;12.93;;;9.82;;
62832;SDS011;48891;49.220;6.920;2023-04-25T04:37:49;11.93;;;9.35;;
62832;SDS011;48891;49.220;6.920;2023-04-25T04:40:14;11.30;;;8.93;;
62832;SDS011;48891;49.220;6.920;2023-04-25T04:42:40;12.73;;;9.52;;
62832;SDS011;48891;49.220;6.920;2023-04-25T04:45:05;12.70;;;9.88;;
62832;SDS011;48891;49.220;6.920;2023-04-25T04:47:30;11.43;;;9.63;;
62832;SDS011;48891;49.220;6.920;2023-04-25T04:49:56;12.50;;;9.35;;
62832;SDS011;48891;49.220;6.920;2023-04-25T04:52:21;11.18;;;8.32;;
62832;SDS011;48891;49.220;6.920;2023-04-25T04:54:47;11.43;;;9.38;;
62832;SDS011;48891;49.220;6.920;2023-04-25T04:57:12;11.23;;;8.90;;
62832;SDS011;48891;49.220;6.920;2023-04-25T04:59:37;10.85;;;9.05;;
62832;SDS011;48891;49.220;6.920;2023-04-25T05:02:02;10.82;;;9.00;;
62832;SDS011;48891;49.220;6.920;2023-04-25T05:04:28;12.10;;;9.07;;
62832;SDS011;48891;49.220;6.920;2023-04-25T05:06:53;11.75;;;8.85;;
62832;SDS011;48891;49.220;6.920;2023-04-25T05:09:18;11.13;;;8.57;;
62832;SDS011;48891;49.220;6.920;2023-04-25T05:11:43;11.02;;;8.68;;
62832;SDS011;48891;49.220;6.920;2023-04-25T05:14:08;10.50;;;8.52;;
62832;SDS011;48891;49.220;6.920;2023-04-25T05:16:34;10.23;;;8.63;;
62832;SDS011;48891;49.220;6.920;2023-04-25T05:18:59;12.95;;;8.93;;
62832;SDS011;48891;49.220;6.920;2023-04-25T05:21:24;11.20;;;8.48;;
62832;SDS011;48891;49.220;6.920;2023-04-25T05:23:49;10.27;;;8.30;;
62832;SDS011;48891;49.220;6.920;2023-04-25T05:26:15;11.68;;;9.10;;
62832;SDS011;48891;49.220;6.920;2023-04-25T05:28:40;11.43;;;8.90;;
62832;SDS011;48891;49.220;6.920;2023-04-25T05:31:06;10.52;;;8.82;;
62832;SDS011;48891;49.220;6.920;2023-04-25T05:33:31;11.32;;;8.57;;
62832;SDS011;48891;49.220;6.920;2023-04-25T05:35:57;10.40;;;8.65;;
62832;SDS011;48891;49.220;6.920;2023-04-25T05:38:22;10.73;;;9.07;;
62832;SDS011;48891;49.220;6.920;2023-04-25T05:40:47;10.30;;;8.23;;
62832;SDS011;48891;49.220;6.920;2023-04-25T05:43:12;11.98;;;8.95;;
62832;SDS011;48891;49.220;6.920;2023-04-25T05:45:37;10.25;;;8.35;;
62832;SDS011;48891;49.220;6.920;2023-04-25T05:48:03;13.27;;;9.18;;
62832;SDS011;48891;49.220;6.920;2023-04-25T05:50:28;10.13;;;8.00;;
62832;SDS011;48891;49.220;6.920;2023-04-25T05:52:53;9.35;;;7.55;;
62832;SDS011;48891;49.220;6.920;2023-04-25T05:55:18;10.98;;;8.20;;
62832;SDS011;48891;49.220;6.920;2023-04-25T05:57:45;10.75;;;8.02;;
62832;SDS011;48891;49.220;6.920;2023-04-25T06:00:11;10.75;;;8.10;;
62832;SDS011;48891;49.220;6.920;2023-04-25T06:02:38;10.60;;;8.20;;
62832;SDS011;48891;49.220;6.920;2023-04-25T06:05:03;10.63;;;8.05;;
62832;SDS011;48891;49.220;6.920;2023-04-25T06:07:29;11.40;;;8.52;;
62832;SDS011;48891;49.220;6.920;2023-04-25T06:09:54;9.45;;;8.25;;
62832;SDS011;48891;49.220;6.920;2023-04-25T06:12:19;10.65;;;8.10;;
62832;SDS011;48891;49.220;6.920;2023-04-25T06:14:45;11.10;;;8.40;;
62832;SDS011;48891;49.220;6.920;2023-04-25T06:17:10;13.93;;;8.98;;
62832;SDS011;48891;49.220;6.920;2023-04-25T06:19:35;9.98;;;8.05;;
62832;SDS011;48891;49.220;6.920;2023-04-25T06:22:01;11.32;;;9.05;;
62832;SDS011;48891;49.220;6.920;2023-04-25T06:24:26;10.70;;;8.60;;
62832;SDS011;48891;49.220;6.920;2023-04-25T06:26:52;11.18;;;8.43;;
62832;SDS011;48891;49.220;6.920;2023-04-25T06:29:17;9.15;;;8.05;;
62832;SDS011;48891;49.220;6.920;2023-04-25T06:31:43;10.63;;;8.30;;
62832;SDS011;48891;49.220;6.920;2023-04-25T06:34:08;9.95;;;8.55;;
62832;SDS011;48891;49.220;6.920;2023-04-25T06:36:33;10.65;;;9.23;;
62832;SDS011;48891;49.220;6.920;2023-04-25T06:38:58;10.63;;;8.93;;
62832;SDS011;48891;49.220;6.920;2023-04-25T06:41:23;9.60;;;8.57;;
62832;SDS011;48891;49.220;6.920;2023-04-25T06:43:49;11.95;;;8.68;;
62832;SDS011;48891;49.220;6.920;2023-04-25T06:46:14;11.20;;;8.27;;
62832;SDS011;48891;49.220;6.920;2023-04-25T06:48:39;11.50;;;9.20;;
62832;SDS011;48891;49.220;6.920;2023-04-25T06:51:04;11.23;;;8.52;;
62832;SDS011;48891;49.220;6.920;2023-04-25T06:53:30;10.77;;;9.02;;
62832;SDS011;48891;49.220;6.920;2023-04-25T06:55:55;10.25;;;8.63;;
62832;SDS011;48891;49.220;6.920;2023-04-25T06:58:20;12.50;;;9.07;;
62832;SDS011;48891;49.220;6.920;2023-04-25T07:00:45;10.18;;;8.75;;
62832;SDS011;48891;49.220;6.920;2023-04-25T07:03:11;9.93;;;8.60;;
62832;SDS011;48891;49.220;6.920;2023-04-25T07:05:36;10.70;;;8.50;;
62832;SDS011;48891;49.220;6.920;2023-04-25T07:08:01;10.40;;;8.65;;
62832;SDS011;48891;49.220;6.920;2023-04-25T07:10:26;10.82;;;8.88;;
62832;SDS011;48891;49.220;6.920;2023-04-25T07:12:52;10.15;;;8.55;;
62832;SDS011;48891;49.220;6.920;2023-04-25T07:15:17;11.35;;;8.23;;
62832;SDS011;48891;49.220;6.920;2023-04-25T07:17:42;11.15;;;9.05;;
62832;SDS011;48891;49.220;6.920;2023-04-25T07:20:08;10.60;;;8.32;;
62832;SDS011;48891;49.220;6.920;2023-04-25T07:22:33;11.95;;;9.23;;
62832;SDS011;48891;49.220;6.920;2023-04-25T07:24:59;10.80;;;8.35;;
62832;SDS011;48891;49.220;6.920;2023-04-25T07:27:24;11.50;;;8.75;;
62832;SDS011;48891;49.220;6.920;2023-04-25T07:29:49;10.45;;;8.43;;
62832;SDS011;48891;49.220;6.920;2023-04-25T07:32:14;11.23;;;8.85;;
62832;SDS011;48891;49.220;6.920;2023-04-25T07:34:40;10.50;;;8.48;;
62832;SDS011;48891;49.220;6.920;2023-04-25T07:37:05;11.05;;;9.02;;
62832;SDS011;48891;49.220;6.920;2023-04-25T07:39:30;11.27;;;8.88;;
62832;SDS011;48891;49.220;6.920;2023-04-25T07:41:56;10.35;;;8.70;;
62832;SDS011;48891;49.220;6.920;2023-04-25T07:44:21;10.98;;;8.35;;
62832;SDS011;48891;49.220;6.920;2023-04-25T07:46:47;10.75;;;8.10;;
62832;SDS011;48891;49.220;6.920;2023-04-25T07:49:12;10.82;;;8.55;;
62832;SDS011;48891;49.220;6.920;2023-04-25T07:51:37;9.45;;;8.30;;
62832;SDS011;48891;49.220;6.920;2023-04-25T07:54:02;11.15;;;8.50;;
62832;SDS011;48891;49.220;6.920;2023-04-25T07:56:28;10.50;;;8.73;;
62832;SDS011;48891;49.220;6.920;2023-04-25T07:58:53;10.75;;;8.38;;
62832;SDS011;48891;49.220;6.920;2023-04-25T08:01:18;10.70;;;8.57;;
62832;SDS011;48891;49.220;6.920;2023-04-25T08:03:43;10.88;;;8.32;;
62832;SDS011;48891;49.220;6.920;2023-04-25T08:06:08;10.38;;;7.90;;
62832;SDS011;48891;49.220;6.920;2023-04-25T08:08:34;10.90;;;8.18;;
62832;SDS011;48891;49.220;6.920;2023-04-25T08:10:59;10.85;;;8.38;;
62832;SDS011;48891;49.220;6.920;2023-04-25T08:13:24;11.00;;;8.25;;
62832;SDS011;48891;49.220;6.920;2023-04-25T08:15:49;10.55;;;8.95;;
62832;SDS011;48891;49.220;6.920;2023-04-25T08:18:15;10.40;;;8.43;;
62832;SDS011;48891;49.220;6.920;2023-04-25T08:20:40;11.75;;;8.52;;
62832;SDS011;48891;49.220;6.920;2023-04-25T08:23:05;11.20;;;8.27;;
62832;SDS011;48891;49.220;6.920;2023-04-25T08:25:30;10.88;;;8.55;;
62832;SDS011;48891;49.220;6.920;2023-04-25T08:27:56;9.52;;;7.85;;
62832;SDS011;48891;49.220;6.920;2023-04-25T08:30:21;10.70;;;9.13;;
62832;SDS011;48891;49.220;6.920;2023-04-25T08:32:46;10.55;;;8.13;;
62832;SDS011;48891;49.220;6.920;2023-04-25T08:35:11;10.73;;;8.20;;
62832;SDS011;48891;49.220;6.920;2023-04-25T08:37:37;9.88;;;8.27;;
62832;SDS011;48891;49.220;6.920;2023-04-25T08:40:03;10.80;;;8.45;;
62832;SDS011;48891;49.220;6.920;2023-04-25T08:42:28;9.63;;;7.95;;
62832;SDS011;48891;49.220;6.920;2023-04-25T08:47:23;9.98;;;7.78;;
62832;SDS011;48891;49.220;6.920;2023-04-25T08:49:51;10.52;;;8.52;;
62832;SDS011;48891;49.220;6.920;2023-04-25T08:52:21;10.00;;;8.30;;
62832;SDS011;48891;49.220;6.920;2023-04-25T08:54:48;10.60;;;7.85;;
62832;SDS011;48891;49.220;6.920;2023-04-25T08:57:14;10.30;;;7.97;;
62832;SDS011;48891;49.220;6.920;2023-04-25T08:59:39;9.80;;;7.97;;
62832;SDS011;48891;49.220;6.920;2023-04-25T09:02:05;11.70;;;7.70;;
62832;SDS011;48891;49.220;6.920;2023-04-25T09:04:31;11.88;;;8.13;;
62832;SDS011;48891;49.220;6.920;2023-04-25T09:06:56;10.40;;;7.85;;
62832;SDS011;48891;49.220;6.920;2023-04-25T09:09:22;11.15;;;7.80;;
62832;SDS011;48891;49.220;6.920;2023-04-25T09:11:48;10.05;;;8.30;;
62832;SDS011;48891;49.220;6.920;2023-04-25T09:14:19;10.60;;;7.50;;
62832;SDS011;48891;49.220;6.920;2023-04-25T09:16:58;11.88;;;7.95;;
62832;SDS011;48891;49.220;6.920;2023-04-25T09:19:31;10.90;;;8.43;;
62832;SDS011;48891;49.220;6.920;2023-04-25T09:21:59;10.38;;;6.97;;
62832;SDS011;48891;49.220;6.920;2023-04-25T09:27:20;10.07;;;7.72;;
62832;SDS011;48891;49.220;6.920;2023-04-25T09:29:46;10.73;;;7.95;;
62832;SDS011;48891;49.220;6.920;2023-04-25T09:34:50;11.25;;;8.43;;
62832;SDS011;48891;49.220;6.920;2023-04-25T09:37:17;10.35;;;7.97;;
62832;SDS011;48891;49.220;6.920;2023-04-25T09:39:47;12.10;;;7.78;;
62832;SDS011;48891;49.220;6.920;2023-04-25T09:42:14;10.88;;;7.65;;
62832;SDS011;48891;49.220;6.920;2023-04-25T09:44:49;8.38;;;7.20;;
62832;SDS011;48891;49.220;6.920;2023-04-25T09:47:17;9.27;;;7.20;;
62832;SDS011;48891;49.220;6.920;2023-04-25T09:49:43;9.73;;;7.40;;
62832;SDS011;48891;49.220;6.920;2023-04-25T09:52:09;11.55;;;7.72;;
62832;SDS011;48891;49.220;6.920;2023-04-25T09:54:39;8.60;;;7.20;;
62832;SDS011;48891;49.220;6.920;2023-04-25T09:57:08;9.52;;;7.68;;
62832;SDS011;48891;49.220;6.920;2023-04-25T09:59:35;9.40;;;7.38;;
62832;SDS011;48891;49.220;6.920;2023-04-25T10:02:03;11.05;;;7.53;;
62832;SDS011;48891;49.220;6.920;2023-04-25T10:04:29;10.38;;;7.13;;
62832;SDS011;48891;49.220;6.920;2023-04-25T10:06:59;9.60;;;7.38;;
62832;SDS011;48891;49.220;6.920;2023-04-25T10:09:25;11.02;;;7.60;;
62832;SDS011;48891;49.220;6.920;2023-04-25T10:11:51;9.32;;;7.45;;
62832;SDS011;48891;49.220;6.920;2023-04-25T10:14:18;10.10;;;6.88;;
62832;SDS011;48891;49.220;6.920;2023-04-25T10:16:44;8.15;;;6.90;;
62832;SDS011;48891;49.220;6.920;2023-04-25T10:19:10;10.30;;;6.90;;
62832;SDS011;48891;49.220;6.920;2023-04-25T10:21:35;8.15;;;7.10;;
62832;SDS011;48891;49.220;6.920;2023-04-25T10:24:05;9.65;;;7.53;;
62832;SDS011;48891;49.220;6.920;2023-04-25T10:26:31;10.20;;;7.47;;
62832;SDS011;48891;49.220;6.920;2023-04-25T10:28:58;8.88;;;7.18;;
62832;SDS011;48891;49.220;6.920;2023-04-25T10:31:25;8.52;;;7.32;;
62832;SDS011;48891;49.220;6.920;2023-04-25T10:33:50;8.68;;;6.97;;
62832;SDS011;48891;49.220;6.920;2023-04-25T10:36:19;8.80;;;7.40;;
62832;SDS011;48891;49.220;6.920;2023-04-25T10:38:49;8.95;;;6.97;;
62832;SDS011;48891;49.220;6.920;2023-04-25T10:41:15;10.32;;;7.03;;
62832;SDS011;48891;49.220;6.920;2023-04-25T10:43:43;9.50;;;7.82;;
62832;SDS011;48891;49.220;6.920;2023-04-25T10:46:19;8.52;;;7.13;;
62832;SDS011;48891;49.220;6.920;2023-04-25T10:48:48;9.88;;;7.57;;
62832;SDS011;48891;49.220;6.920;2023-04-25T10:51:24;10.85;;;7.35;;
62832;SDS011;48891;49.220;6.920;2023-04-25T10:54:24;8.70;;;7.05;;
62832;SDS011;48891;49.220;6.920;2023-04-25T10:56:42;7.93;;;7.13;;
62832;SDS011;48891;49.220;6.920;2023-04-25T10:59:09;9.00;;;7.03;;
62832;SDS011;48891;49.220;6.920;2023-04-25T11:01:37;9.70;;;7.00;;
62832;SDS011;48891;49.220;6.920;2023-04-25T11:04:03;10.77;;;7.17;;
62832;SDS011;48891;49.220;6.920;2023-04-25T11:06:35;8.35;;;7.20;;
62832;SDS011;48891;49.220;6.920;2023-04-25T11:09:02;11.35;;;7.55;;
62832;SDS011;48891;49.220;6.920;2023-04-25T11:11:28;9.73;;;7.80;;
62832;SDS011;48891;49.220;6.920;2023-04-25T11:13:53;9.48;;;7.35;;
62832;SDS011;48891;49.220;6.920;2023-04-25T11:16:19;10.45;;;7.53;;
62832;SDS011;48891;49.220;6.920;2023-04-25T11:18:44;9.30;;;7.35;;
62832;SDS011;48891;49.220;6.920;2023-04-25T11:21:09;9.55;;;7.28;;
62832;SDS011;48891;49.220;6.920;2023-04-25T11:23:35;9.32;;;7.10;;
62832;SDS011;48891;49.220;6.920;2023-04-25T11:26:01;9.63;;;7.47;;
62832;SDS011;48891;49.220;6.920;2023-04-25T11:28:27;8.82;;;7.22;;
62832;SDS011;48891;49.220;6.920;2023-04-25T11:30:53;9.57;;;7.45;;
62832;SDS011;48891;49.220;6.920;2023-04-25T11:33:22;10.50;;;8.20;;
62832;SDS011;48891;49.220;6.920;2023-04-25T11:35:48;9.45;;;7.18;;
62832;SDS011;48891;49.220;6.920;2023-04-25T11:38:14;10.00;;;8.13;;
62832;SDS011;48891;49.220;6.920;2023-04-25T11:40:39;10.05;;;7.40;;
62832;SDS011;48891;49.220;6.920;2023-04-25T11:43:05;11.32;;;8.40;;
62832;SDS011;48891;49.220;6.920;2023-04-25T11:45:30;8.85;;;7.95;;
62832;SDS011;48891;49.220;6.920;2023-04-25T11:47:56;11.13;;;7.82;;
62832;SDS011;48891;49.220;6.920;2023-04-25T11:50:21;9.73;;;7.45;;
62832;SDS011;48891;49.220;6.920;2023-04-25T11:52:46;9.50;;;7.70;;
62832;SDS011;48891;49.220;6.920;2023-04-25T11:55:13;10.73;;;8.40;;
62832;SDS011;48891;49.220;6.920;2023-04-25T11:57:41;11.30;;;8.23;;
62832;SDS011;48891;49.220;6.920;2023-04-25T12:00:08;10.18;;;8.52;;
62832;SDS011;48891;49.220;6.920;2023-04-25T12:02:37;12.93;;;9.55;;
62832;SDS011;48891;49.220;6.920;2023-04-25T12:05:08;11.25;;;8.60;;
62832;SDS011;48891;49.220;6.920;2023-04-25T12:07:35;11.15;;;8.70;;
62832;SDS011;48891;49.220;6.920;2023-04-25T12:10:04;11.30;;;8.55;;
62832;SDS011;48891;49.220;6.920;2023-04-25T12:12:34;11.80;;;9.63;;
62832;SDS011;48891;49.220;6.920;2023-04-25T12:15:09;10.93;;;8.88;;
62832;SDS011;48891;49.220;6.920;2023-04-25T12:17:35;11.07;;;9.35;;
62832;SDS011;48891;49.220;6.920;2023-04-25T12:20:05;12.10;;;9.40;;
62832;SDS011;48891;49.220;6.920;2023-04-25T12:22:41;13.38;;;10.40;;
62832;SDS011;48891;49.220;6.920;2023-04-25T12:25:07;12.15;;;9.75;;
62832;SDS011;48891;49.220;6.920;2023-04-25T12:27:33;12.07;;;9.50;;
62832;SDS011;48891;49.220;6.920;2023-04-25T12:29:58;11.82;;;9.55;;
62832;SDS011;48891;49.220;6.920;2023-04-25T12:32:23;12.85;;;10.65;;
62832;SDS011;48891;49.220;6.920;2023-04-25T12:34:49;13.68;;;11.00;;
62832;SDS011;48891;49.220;6.920;2023-04-25T12:37:14;12.68;;;11.00;;
62832;SDS011;48891;49.220;6.920;2023-04-25T12:39:39;15.07;;;10.52;;
62832;SDS011;48891;49.220;6.920;2023-04-25T12:42:05;15.25;;;11.07;;
62832;SDS011;48891;49.220;6.920;2023-04-25T12:44:30;14.18;;;11.00;;
62832;SDS011;48891;49.220;6.920;2023-04-25T12:46:55;14.18;;;11.70;;
62832;SDS011;48891;49.220;6.920;2023-04-25T12:49:20;15.40;;;11.60;;
62832;SDS011;48891;49.220;6.920;2023-04-25T12:51:46;15.60;;;12.23;;
62832;SDS011;48891;49.220;6.920;2023-04-25T12:54:11;13.88;;;11.38;;
62832;SDS011;48891;49.220;6.920;2023-04-25T12:56:36;14.65;;;12.38;;
62832;SDS011;48891;49.220;6.920;2023-04-25T12:59:02;16.48;;;12.82;;
62832;SDS011;48891;49.220;6.920;2023-04-25T13:01:27;16.00;;;12.07;;
62832;SDS011;48891;49.220;6.920;2023-04-25T13:03:52;16.15;;;12.73;;
62832;SDS011;48891;49.220;6.920;2023-04-25T13:06:18;16.27;;;12.95;;
62832;SDS011;48891;49.220;6.920;2023-04-25T13:08:44;16.85;;;13.07;;
62832;SDS011;48891;49.220;6.920;2023-04-25T13:11:09;17.98;;;14.20;;
62832;SDS011;48891;49.220;6.920;2023-04-25T13:13:35;17.13;;;13.52;;
62832;SDS011;48891;49.220;6.920;2023-04-25T13:16:01;17.23;;;13.93;;
62832;SDS011;48891;49.220;6.920;2023-04-25T13:18:26;17.55;;;13.15;;
62832;SDS011;48891;49.220;6.920;2023-04-25T13:20:52;16.92;;;13.82;;
62832;SDS011;48891;49.220;6.920;2023-04-25T13:23:18;18.13;;;14.15;;
62832;SDS011;48891;49.220;6.920;2023-04-25T13:25:44;19.98;;;16.15;;
62832;SDS011;48891;49.220;6.920;2023-04-25T13:28:09;20.70;;;14.68;;
62832;SDS011;48891;49.220;6.920;2023-04-25T13:30:35;20.15;;;15.98;;
62832;SDS011;48891;49.220;6.920;2023-04-25T13:33:00;20.63;;;16.15;;
62832;SDS011;48891;49.220;6.920;2023-04-25T13:35:25;21.83;;;16.23;;
62832;SDS011;48891;49.220;6.920;2023-04-25T13:37:50;19.25;;;16.27;;
62832;SDS011;48891;49.220;6.920;2023-04-25T13:40:16;19.73;;;16.73;;
62832;SDS011;48891;49.220;6.920;2023-04-25T13:42:41;19.95;;;16.25;;
62832;SDS011;48891;49.220;6.920;2023-04-25T13:45:06;21.35;;;17.33;;
62832;SDS011;48891;49.220;6.920;2023-04-25T13:47:32;21.13;;;16.88;;
62832;SDS011;48891;49.220;6.920;2023-04-25T13:49:59;19.77;;;16.00;;
62832;SDS011;48891;49.220;6.920;2023-04-25T13:52:25;21.58;;;16.52;;
62832;SDS011;48891;49.220;6.920;2023-04-25T13:54:50;21.30;;;16.50;;
62832;SDS011;48891;49.220;6.920;2023-04-25T13:57:15;22.23;;;16.67;;
62832;SDS011;48891;49.220;6.920;2023-04-25T13:59:40;20.20;;;16.10;;
62832;SDS011;48891;49.220;6.920;2023-04-25T14:02:06;22.95;;;17.25;;
62832;SDS011;48891;49.220;6.920;2023-04-25T14:04:32;21.58;;;17.25;;
62832;SDS011;48891;49.220;6.920;2023-04-25T14:06:57;21.08;;;17.17;;
62832;SDS011;48891;49.220;6.920;2023-04-25T14:09:22;20.77;;;17.15;;
62832;SDS011;48891;49.220;6.920;2023-04-25T14:11:47;22.05;;;17.42;;
62832;SDS011;48891;49.220;6.920;2023-04-25T14:14:12;21.77;;;16.85;;
62832;SDS011;48891;49.220;6.920;2023-04-25T14:16:38;23.77;;;18.67;;
62832;SDS011;48891;49.220;6.920;2023-04-25T14:19:03;25.30;;;18.45;;
62832;SDS011;48891;49.220;6.920;2023-04-25T14:21:28;23.88;;;18.83;;
62832;SDS011;48891;49.220;6.920;2023-04-25T14:23:54;23.85;;;17.90;;
62832;SDS011;48891;49.220;6.920;2023-04-25T14:26:19;22.83;;;18.42;;
62832;SDS011;48891;49.220;6.920;2023-04-25T14:28:44;22.75;;;18.35;;
62832;SDS011;48891;49.220;6.920;2023-04-25T14:31:09;25.27;;;19.45;;